Aldham, United Kingdom
Current Conditions -  °F | °C
As of 1:50 PM on Friday 31 Oct 2014 (Local Time) from EGUW Reporting Station
Clear Clear  
Wind Chill: 68°   Ceiling: Unl
Heat Index: 68°   Visibility: 6mi
Dew Point: 57°   Wind: 9mph
Humidity: 68%   Direction: 160°SSE
Pressure: 30"   Gusts: NA
Location:  51.9°N, 0.75°E
Report Text: EGUW 311350Z 16008KT CAVOK 20/14 Q1016 BLU NOSIG
Loading
Personal Weather Stations






























Interactive Weather Map
Tropical Storm Tracking
New forecast layout! Learn more

10-Day Weather Forecast

Advertisements
Track Severe Weather on mobile